createdAt,value
2019-02-27T00:00:19.316Z,72.63
2019-02-27T00:02:47.627Z,72.80
2019-02-27T00:05:15.941Z,72.65
2019-02-27T00:07:44.237Z,72.65
2019-02-27T00:10:12.623Z,72.89
2019-02-27T00:12:41.051Z,72.87
2019-02-27T00:15:09.541Z,72.86
2019-02-27T00:17:37.837Z,72.68
2019-02-27T00:20:06.986Z,72.87
2019-02-27T00:22:35.291Z,73.12
2019-02-27T00:25:04.113Z,73.29
2019-02-27T00:27:32.546Z,73.65
2019-02-27T00:30:04.559Z,73.91
2019-02-27T00:32:30.896Z,73.99
2019-02-27T00:34:59.212Z,73.92
2019-02-27T00:37:27.565Z,74.06
2019-02-27T00:39:55.858Z,74.22
2019-02-27T00:42:33.310Z,74.26
2019-02-27T00:44:54.643Z,74.01
2019-02-27T00:47:22.952Z,73.89
2019-02-27T00:49:51.251Z,73.76
2019-02-27T00:52:19.599Z,73.90
2019-02-27T00:54:47.894Z,73.97
2019-02-27T00:57:20.612Z,74.16
2019-02-27T00:59:46.240Z,74.29
2019-02-27T01:02:14.559Z,74.43
2019-02-27T01:04:42.947Z,74.32
2019-02-27T01:07:11.252Z,74.53
2019-02-27T01:09:40.058Z,74.61
2019-02-27T01:12:08.407Z,74.55
2019-02-27T01:14:37.187Z,74.84
2019-02-27T01:17:05.902Z,74.91
2019-02-27T01:19:38.363Z,75.09
2019-02-27T01:22:04.254Z,75.30
2019-02-27T01:24:32.582Z,75.22
2019-02-27T01:27:04.131Z,75.25
2019-02-27T01:29:30.925Z,75.44
2019-02-27T01:31:59.292Z,75.70
2019-02-27T01:34:27.610Z,75.81
2019-02-27T01:36:57.901Z,75.77
2019-02-27T01:39:25.976Z,75.62
2019-02-27T01:41:55.349Z,75.75
2019-02-27T01:44:24.327Z,75.85
2019-02-27T01:46:54.511Z,75.94
2019-02-27T01:49:23.124Z,76.22
2019-02-27T01:51:51.451Z,76.28
2019-02-27T01:54:19.735Z,76.15
2019-02-27T01:56:48.055Z,76.27
2019-02-27T01:59:16.707Z,76.36
2019-02-27T02:01:45.990Z,76.32
2019-02-27T02:04:14.292Z,76.29
2019-02-27T02:06:42.613Z,76.53
2019-02-27T02:09:31.093Z,76.70
2019-02-27T02:12:02.104Z,76.96
2019-02-27T02:14:45.346Z,76.96
2019-02-27T02:17:41.045Z,76.68
2019-02-27T02:20:36.981Z,76.85
2019-02-27T02:23:14.801Z,76.96
2019-02-27T02:25:46.326Z,77.05
2019-02-27T02:28:39.121Z,77.01
2019-02-27T02:31:16.416Z,77.03
2019-02-27T02:34:05.590Z,77.35
2019-02-27T02:37:08.462Z,77.44
2019-02-27T02:40:05.141Z,77.46
2019-02-27T02:42:42.363Z,77.78
2019-02-27T02:45:16.725Z,77.81
2019-02-27T02:48:06.345Z,77.69
2019-02-27T02:50:55.946Z,77.79
2019-02-27T02:53:43.883Z,77.97
2019-02-27T02:56:27.217Z,78.10
2019-02-27T02:59:07.603Z,78.32
2019-02-27T03:01:49.375Z,78.59
2019-02-27T03:04:38.491Z,78.55
2019-02-27T03:07:25.278Z,78.56
2019-02-27T03:10:07.077Z,78.50
2019-02-27T03:12:47.917Z,78.40
2019-02-27T03:15:30.960Z,78.42
2019-02-27T03:18:14.507Z,78.49
2019-02-27T03:21:09.797Z,78.40
2019-02-27T03:23:51.006Z,78.51
2019-02-27T03:26:38.847Z,78.49
2019-02-27T03:29:37.983Z,78.79
2019-02-27T03:32:27.674Z,78.75
2019-02-27T03:35:27.424Z,78.65
2019-02-27T03:38:00.830Z,78.77
2019-02-27T03:40:53.595Z,78.84
2019-02-27T03:43:27.701Z,78.79
2019-02-27T03:46:14.028Z,78.70
2019-02-27T03:48:51.355Z,78.73
2019-02-27T03:51:31.922Z,78.71
2019-02-27T03:54:22.225Z,78.57
2019-02-27T03:56:59.773Z,78.68
2019-02-27T03:59:47.929Z,78.95
2019-02-27T04:02:31.512Z,79.19
2019-02-27T04:05:18.117Z,79.37
2019-02-27T04:07:49.579Z,79.51
2019-02-27T04:10:17.915Z,79.45
2019-02-27T04:12:51.368Z,79.50
2019-02-27T04:15:18.123Z,79.57
2019-02-27T04:17:51.792Z,79.54
2019-02-27T04:20:15.689Z,79.53
2019-02-27T04:22:43.958Z,79.74
2019-02-27T04:25:12.281Z,79.90
2019-02-27T04:27:40.583Z,79.73
2019-02-27T04:30:14.761Z,79.60
2019-02-27T04:32:39.677Z,79.64
2019-02-27T04:35:08.440Z,79.70
2019-02-27T04:37:37.069Z,79.79
2019-02-27T04:40:11.059Z,79.86
2019-02-27T04:42:37.444Z,80.08
2019-02-27T04:45:09.869Z,80.18
2019-02-27T04:47:39.208Z,80.26
2019-02-27T04:50:11.139Z,80.22
2019-02-27T04:52:37.616Z,80.15
2019-02-27T04:55:06.332Z,80.20
2019-02-27T04:57:34.616Z,80.20
2019-02-27T05:00:02.953Z,80.07
2019-02-27T05:02:31.254Z,80.09
2019-02-27T05:04:59.564Z,80.20
2019-02-27T05:07:27.871Z,80.18
2019-02-27T05:09:56.309Z,80.12
2019-02-27T05:12:24.606Z,80.01
2019-02-27T05:14:52.920Z,79.98
2019-02-27T05:17:22.016Z,79.83
2019-02-27T05:19:51.996Z,79.87
2019-02-27T05:22:20.410Z,80.21
2019-02-27T05:24:48.740Z,80.37
2019-02-27T05:27:17.042Z,80.33
2019-02-27T05:29:45.362Z,79.99
2019-02-27T05:32:13.673Z,79.92
2019-02-27T05:34:42.009Z,80.02
2019-02-27T05:37:10.310Z,80.11
2019-02-27T05:39:38.630Z,80.31
2019-02-27T05:42:07.043Z,80.30
2019-02-27T05:44:35.327Z,80.25
2019-02-27T05:47:03.966Z,80.06
2019-02-27T05:49:32.287Z,80.12
2019-02-27T05:52:00.595Z,80.20
2019-02-27T05:54:30.031Z,80.20
2019-02-27T05:56:58.938Z,80.11
2019-02-27T05:59:29.409Z,79.88
2019-02-27T06:01:57.407Z,79.97
2019-02-27T06:04:25.715Z,79.94
2019-02-27T06:06:54.061Z,79.85
2019-02-27T06:09:22.348Z,79.98
2019-02-27T06:11:50.659Z,80.07
2019-02-27T06:14:21.311Z,80.20
2019-02-27T06:16:49.007Z,80.34
2019-02-27T06:19:17.295Z,80.55
2019-02-27T06:21:45.611Z,80.38
2019-02-27T06:24:13.930Z,80.19
2019-02-27T06:26:42.244Z,80.23
2019-02-27T06:29:10.548Z,80.42
2019-02-27T06:31:39.510Z,80.61
2019-02-27T06:34:07.966Z,80.62
2019-02-27T06:36:36.268Z,80.52
2019-02-27T06:39:06.307Z,80.52
2019-02-27T06:41:34.594Z,80.44
2019-02-27T06:44:02.916Z,80.39
2019-02-27T06:46:31.210Z,80.36
2019-02-27T06:48:59.530Z,80.32
2019-02-27T06:51:28.812Z,80.06
2019-02-27T06:53:57.186Z,80.07
2019-02-27T06:56:25.835Z,80.24
2019-02-27T06:58:54.159Z,80.33
2019-02-27T07:01:22.806Z,80.35
2019-02-27T07:03:51.111Z,80.41
2019-02-27T07:06:21.567Z,80.21
2019-02-27T07:08:49.457Z,80.10
2019-02-27T07:11:17.776Z,80.16
2019-02-27T07:13:46.076Z,80.21
2019-02-27T07:16:14.413Z,80.17
2019-02-27T07:18:43.006Z,80.08
2019-02-27T07:21:11.319Z,79.95
2019-02-27T07:23:39.609Z,79.84
2019-02-27T07:26:08.230Z,79.71
2019-02-27T07:28:36.539Z,79.61
2019-02-27T07:31:04.900Z,79.64
2019-02-27T07:33:33.217Z,79.69
2019-02-27T07:36:03.651Z,79.59
2019-02-27T07:38:31.554Z,79.48
2019-02-27T07:41:00.131Z,79.19
2019-02-27T07:43:28.705Z,79.14
2019-02-27T07:45:57.354Z,78.99
2019-02-27T07:48:25.718Z,78.91
2019-02-27T07:50:54.041Z,78.57
2019-02-27T07:53:22.345Z,78.55
2019-02-27T07:55:50.710Z,77.93
2019-02-27T07:58:18.947Z,77.66
2019-02-27T08:00:49.778Z,77.10
2019-02-27T08:03:17.292Z,76.34
2019-02-27T08:05:45.600Z,76.81
2019-02-27T08:08:13.902Z,76.50
2019-02-27T08:10:42.220Z,75.84
2019-02-27T08:13:10.510Z,75.92
2019-02-27T08:15:38.842Z,75.33
2019-02-27T08:18:07.200Z,74.84
2019-02-27T08:20:35.939Z,74.86
2019-02-27T08:23:04.229Z,74.55
2019-02-27T08:25:32.631Z,74.54
2019-02-27T08:28:00.940Z,73.32
2019-02-27T08:30:29.696Z,72.21
2019-02-27T08:32:57.999Z,71.15
2019-02-27T08:35:26.305Z,70.58
2019-02-27T08:38:02.232Z,71.05
2019-02-27T08:40:25.368Z,69.79
2019-02-27T08:42:53.722Z,69.61
2019-02-27T08:45:26.762Z,68.71
2019-02-27T08:47:52.295Z,68.23
2019-02-27T08:50:24.505Z,67.31
2019-02-27T08:52:52.818Z,66.67
2019-02-27T08:55:22.532Z,65.81
2019-02-27T08:57:56.071Z,65.25
2019-02-27T09:00:29.211Z,64.38
2019-02-27T09:03:02.462Z,63.37
2019-02-27T09:05:27.906Z,62.29
2019-02-27T09:07:56.440Z,61.65
2019-02-27T09:10:28.081Z,60.71
2019-02-27T09:13:04.865Z,60.29
2019-02-27T09:15:26.069Z,60.31
2019-02-27T09:17:54.661Z,59.24
2019-02-27T09:20:22.985Z,59.03
2019-02-27T09:22:51.545Z,59.28
2019-02-27T09:25:23.887Z,58.56
2019-02-27T09:27:49.887Z,58.58
2019-02-27T09:30:22.332Z,58.11
2019-02-27T09:32:50.661Z,57.72
2019-02-27T09:35:18.944Z,57.48
2019-02-27T09:37:48.302Z,57.13
2019-02-27T09:40:25.414Z,56.91
2019-02-27T09:42:54.046Z,56.96
2019-02-27T09:45:34.834Z,56.75
2019-02-27T09:48:03.486Z,56.65
2019-02-27T09:50:33.327Z,55.96
2019-02-27T09:53:03.524Z,55.47
2019-02-27T09:55:31.827Z,55.17
2019-02-27T09:58:00.145Z,54.92
2019-02-27T10:00:45.341Z,54.80
2019-02-27T10:03:14.010Z,54.56
2019-02-27T10:05:42.389Z,54.24
2019-02-27T10:08:11.846Z,53.50
2019-02-27T10:10:44.895Z,52.96
2019-02-27T10:13:10.804Z,52.56
2019-02-27T10:15:39.105Z,52.36
2019-02-27T10:18:07.433Z,52.21
2019-02-27T10:20:37.250Z,51.84
2019-02-27T10:23:05.838Z,51.53
2019-02-27T10:25:34.146Z,51.75
2019-02-27T10:28:04.465Z,51.17
2019-02-27T10:30:32.832Z,50.58
2019-02-27T10:33:03.273Z,50.27
2019-02-27T10:35:31.493Z,50.07
2019-02-27T10:38:00.123Z,49.92
2019-02-27T10:40:28.501Z,49.68
2019-02-27T10:42:57.173Z,49.57
2019-02-27T10:45:25.778Z,49.31
2019-02-27T10:47:54.094Z,48.71
2019-02-27T10:50:22.420Z,48.42
2019-02-27T10:52:50.736Z,48.33
2019-02-27T10:55:20.499Z,48.50
2019-02-27T10:57:48.798Z,48.36
2019-02-27T11:00:32.932Z,47.56
2019-02-27T11:03:01.912Z,47.00
2019-02-27T11:05:38.150Z,46.59
2019-02-27T11:08:06.451Z,46.48
2019-02-27T11:10:34.802Z,46.52
2019-02-27T11:13:06.627Z,46.27
2019-02-27T11:15:33.139Z,45.76
2019-02-27T11:18:05.532Z,45.61
2019-02-27T11:20:31.480Z,45.65
2019-02-27T11:22:59.797Z,45.39
2019-02-27T11:25:31.899Z,45.33
2019-02-27T11:28:00.476Z,45.33
2019-02-27T11:30:40.529Z,45.20
2019-02-27T11:33:08.931Z,44.95
2019-02-27T11:35:37.242Z,45.13
2019-02-27T11:38:06.035Z,44.75
2019-02-27T11:40:34.334Z,45.08
2019-02-27T11:43:06.388Z,44.73
2019-02-27T11:45:32.905Z,44.87
2019-02-27T11:48:01.230Z,44.89
2019-02-27T11:50:29.520Z,44.47
2019-02-27T11:53:01.676Z,43.95
2019-02-27T11:55:27.875Z,43.79
2019-02-27T11:57:56.194Z,43.74
2019-02-27T12:00:30.270Z,43.98
2019-02-27T12:02:59.056Z,43.44
2019-02-27T12:05:33.793Z,43.24
2019-02-27T12:07:58.301Z,42.76
2019-02-27T12:10:28.708Z,42.68
2019-02-27T12:13:00.743Z,43.17
2019-02-27T12:15:27.374Z,43.04
2019-02-27T12:17:59.985Z,42.92
2019-02-27T12:20:25.945Z,42.54
2019-02-27T12:22:54.254Z,41.94
2019-02-27T12:25:26.923Z,41.95
2019-02-27T12:27:54.528Z,41.74
2019-02-27T12:30:27.097Z,41.63
2019-02-27T12:32:56.710Z,41.33
2019-02-27T12:35:28.359Z,41.10
2019-02-27T12:37:56.734Z,41.01
2019-02-27T12:40:25.561Z,41.01
2019-02-27T12:42:53.856Z,41.25
2019-02-27T12:45:29.536Z,41.13
2019-02-27T12:47:57.910Z,40.53
2019-02-27T12:50:31.180Z,40.20
2019-02-27T12:52:57.889Z,40.07
2019-02-27T12:55:26.202Z,40.35
2019-02-27T12:57:54.832Z,40.38
2019-02-27T13:00:30.596Z,40.26
2019-02-27T13:02:59.386Z,40.05
2019-02-27T13:05:28.505Z,40.15
2019-02-27T13:07:56.780Z,39.73
2019-02-27T13:10:33.147Z,39.52
2019-02-27T13:12:58.843Z,39.60
2019-02-27T13:15:30.608Z,39.21
2019-02-27T13:17:58.965Z,38.99
2019-02-27T13:20:33.967Z,38.96
2019-02-27T13:23:05.124Z,38.49
2019-02-27T13:25:32.297Z,38.10
2019-02-27T13:28:00.674Z,38.58
2019-02-27T13:30:29.151Z,38.67
2019-02-27T13:33:00.687Z,38.69
2019-02-27T13:35:29.048Z,38.79
2019-02-27T13:37:57.518Z,38.83
2019-02-27T13:40:26.961Z,38.94
2019-02-27T13:42:55.518Z,39.43
2019-02-27T13:45:28.905Z,39.49
2019-02-27T13:47:58.970Z,39.37
2019-02-27T13:50:27.227Z,39.12
2019-02-27T13:52:55.532Z,39.00
2019-02-27T13:55:24.103Z,38.71
2019-02-27T13:57:52.484Z,38.48
2019-02-27T14:00:26.575Z,38.28
2019-02-27T14:02:54.897Z,38.16
2019-02-27T14:05:23.207Z,38.03
2019-02-27T14:07:57.281Z,38.15
2019-02-27T14:10:26.876Z,38.13
2019-02-27T14:12:55.545Z,38.08
2019-02-27T14:15:27.229Z,37.96
2019-02-27T14:17:54.254Z,38.26
2019-02-27T14:20:27.052Z,38.02
2019-02-27T14:22:54.665Z,37.92
2019-02-27T14:25:28.492Z,37.67
2019-02-27T14:27:55.790Z,37.56
2019-02-27T14:30:41.831Z,37.77
2019-02-27T14:33:11.004Z,37.83
2019-02-27T14:35:39.432Z,38.08
2019-02-27T14:38:07.741Z,38.19
2019-02-27T14:40:38.548Z,38.27
2019-02-27T14:43:06.525Z,38.33
2019-02-27T14:45:39.445Z,37.90
2019-02-27T14:48:04.936Z,37.80
2019-02-27T14:50:34.503Z,37.68
2019-02-27T14:53:03.097Z,38.04
2019-02-27T14:55:31.398Z,37.73
2019-02-27T14:57:59.717Z,37.61
2019-02-27T15:00:30.644Z,37.66
2019-02-27T15:02:59.469Z,37.67
2019-02-27T15:05:27.794Z,37.67
2019-02-27T15:07:56.431Z,38.04
2019-02-27T15:10:25.490Z,37.67
2019-02-27T15:12:55.032Z,37.58
2019-02-27T15:15:32.173Z,37.26
2019-02-27T15:18:00.748Z,37.19
2019-02-27T15:20:30.085Z,37.21
2019-02-27T15:22:58.392Z,36.95
2019-02-27T15:25:27.776Z,36.73
2019-02-27T15:27:58.774Z,36.58
2019-02-27T15:30:31.506Z,36.69
2019-02-27T15:33:03.556Z,36.43
2019-02-27T15:35:29.847Z,36.54
2019-02-27T15:37:58.440Z,36.88
2019-02-27T15:40:30.142Z,36.96
2019-02-27T15:42:58.923Z,36.85
2019-02-27T15:45:28.172Z,36.81
2019-02-27T15:47:56.646Z,36.63
2019-02-27T15:50:33.369Z,36.54
2019-02-27T15:53:01.711Z,36.50
2019-02-27T15:55:33.315Z,36.58
2019-02-27T15:58:00.044Z,36.67
2019-02-27T16:00:28.781Z,36.78
2019-02-27T16:02:57.138Z,36.84
2019-02-27T16:05:30.069Z,36.50
2019-02-27T16:07:55.729Z,36.49
2019-02-27T16:10:26.250Z,36.44
2019-02-27T16:12:59.624Z,36.79
2019-02-27T16:15:25.027Z,36.68
2019-02-27T16:17:53.329Z,36.47
2019-02-27T16:20:26.218Z,36.83
2019-02-27T16:22:54.525Z,36.91
2019-02-27T16:25:27.766Z,37.32
2019-02-27T16:27:56.354Z,37.31
2019-02-27T16:30:31.648Z,37.20
2019-02-27T16:32:57.895Z,37.44
2019-02-27T16:35:26.731Z,37.78
2019-02-27T16:37:57.547Z,37.99
2019-02-27T16:40:26.616Z,38.12
2019-02-27T16:42:54.914Z,38.50
2019-02-27T16:45:32.334Z,39.17
2019-02-27T16:47:58.761Z,40.12
2019-02-27T16:50:28.268Z,40.46
2019-02-27T16:52:56.692Z,40.50
2019-02-27T16:55:26.452Z,40.86
2019-02-27T16:57:57.399Z,41.60
2019-02-27T17:00:30.471Z,42.67
2019-02-27T17:02:58.764Z,43.32
2019-02-27T17:05:27.155Z,43.88
2019-02-27T17:08:00.663Z,44.70
2019-02-27T17:10:39.705Z,45.80
2019-02-27T17:13:08.004Z,45.86
2019-02-27T17:15:36.579Z,46.18
2019-02-27T17:18:05.923Z,46.21
2019-02-27T17:20:34.503Z,46.37
2019-02-27T17:23:07.689Z,46.85
2019-02-27T17:25:33.236Z,47.13
2019-02-27T17:28:01.567Z,47.43
2019-02-27T17:30:37.734Z,47.71
2019-02-27T17:33:05.398Z,48.28
2019-02-27T17:35:33.772Z,48.82
2019-02-27T17:38:02.149Z,49.09
2019-02-27T17:40:30.584Z,49.36
2019-02-27T17:42:58.944Z,49.75
2019-02-27T17:45:27.834Z,49.92
2019-02-27T17:47:56.216Z,50.19
2019-02-27T17:50:24.885Z,50.55
2019-02-27T17:52:53.561Z,50.92
2019-02-27T17:55:22.615Z,51.25
2019-02-27T17:57:50.912Z,51.55
2019-02-27T18:00:28.651Z,51.88
2019-02-27T18:02:57.458Z,52.26
2019-02-27T18:05:26.207Z,53.20
2019-02-27T18:07:54.867Z,54.15
2019-02-27T18:10:23.200Z,54.87
2019-02-27T18:12:51.832Z,55.43
2019-02-27T18:15:21.687Z,56.02
2019-02-27T18:17:50.091Z,56.50
2019-02-27T18:20:18.410Z,56.82
2019-02-27T18:22:49.547Z,57.01
2019-02-27T18:25:18.123Z,57.13
2019-02-27T18:27:47.895Z,57.13
2019-02-27T18:30:20.662Z,57.27
2019-02-27T18:32:49.813Z,57.41
2019-02-27T18:35:19.161Z,57.55
2019-02-27T18:37:53.243Z,57.95
2019-02-27T18:40:18.880Z,58.19
2019-02-27T18:42:47.212Z,58.55
2019-02-27T18:45:24.635Z,58.88
2019-02-27T18:47:53.056Z,59.22
2019-02-27T18:50:24.868Z,59.63
2019-02-27T18:52:51.422Z,60.03
2019-02-27T18:55:19.727Z,60.41
2019-02-27T18:57:48.116Z,60.64
2019-02-27T19:00:27.066Z,60.90
2019-02-27T19:03:03.994Z,61.11
2019-02-27T19:05:32.305Z,61.39
2019-02-27T19:08:00.623Z,61.72
2019-02-27T19:10:29.038Z,61.93
2019-02-27T19:12:59.973Z,62.15
2019-02-27T19:15:27.952Z,62.30
2019-02-27T19:17:56.607Z,62.46
2019-02-27T19:20:31.164Z,62.67
2019-02-27T19:23:00.385Z,62.92
2019-02-27T19:25:33.973Z,63.19
2019-02-27T19:27:59.074Z,63.35
2019-02-27T19:30:27.594Z,63.44
2019-02-27T19:33:01.568Z,63.47
2019-02-27T19:35:26.161Z,63.68
2019-02-27T19:37:54.511Z,63.83
2019-02-27T19:40:23.696Z,63.97
2019-02-27T19:42:54.651Z,64.18
2019-02-27T19:45:22.983Z,64.32
2019-02-27T19:47:54.800Z,64.45
2019-02-27T19:50:22.139Z,64.55
2019-02-27T19:52:50.714Z,64.59
2019-02-27T19:55:19.402Z,64.61
2019-02-27T19:57:47.716Z,64.87
2019-02-27T20:00:19.136Z,65.05
2019-02-27T20:02:47.440Z,65.22
2019-02-27T20:05:16.470Z,65.32
2019-02-27T20:07:45.842Z,65.55
2019-02-27T20:10:16.613Z,65.68
2019-02-27T20:12:47.779Z,65.78
2019-02-27T20:15:17.776Z,65.71
2019-02-27T20:17:46.079Z,65.79
2019-02-27T20:20:15.740Z,66.01
2019-02-27T20:22:44.413Z,66.29
2019-02-27T20:25:18.127Z,66.40
2019-02-27T20:27:46.553Z,66.52
2019-02-27T20:30:22.848Z,66.76
2019-02-27T20:32:51.319Z,66.89
2019-02-27T20:35:20.677Z,66.97
2019-02-27T20:37:49.769Z,67.22
2019-02-27T20:40:19.232Z,67.42
2019-02-27T20:42:50.469Z,67.51
2019-02-27T20:45:22.516Z,67.56
2019-02-27T20:47:57.854Z,67.63
2019-02-27T20:50:38.078Z,67.61
2019-02-27T20:53:08.048Z,67.67
2019-02-27T20:55:36.421Z,67.86
2019-02-27T20:58:05.599Z,68.07
2019-02-27T21:00:36.504Z,68.29
2019-02-27T21:03:04.062Z,68.49
2019-02-27T21:05:32.554Z,68.57
2019-02-27T21:08:02.315Z,68.76
2019-02-27T21:10:32.778Z,68.93
2019-02-27T21:13:01.110Z,69.10
2019-02-27T21:15:32.355Z,69.16
2019-02-27T21:17:59.835Z,69.27
2019-02-27T21:20:28.118Z,69.37
2019-02-27T21:22:59.802Z,69.52
2019-02-27T21:25:26.607Z,69.70
2019-02-27T21:27:54.924Z,69.80
2019-02-27T21:30:24.354Z,69.75
2019-02-27T21:32:53.030Z,69.89
2019-02-27T21:35:21.328Z,69.98
2019-02-27T21:37:51.012Z,70.11
2019-02-27T21:40:19.905Z,70.23
2019-02-27T21:42:50.783Z,70.39
2019-02-27T21:45:24.209Z,70.51
2019-02-27T21:47:52.913Z,70.68
2019-02-27T21:50:25.318Z,70.84
2019-02-27T21:52:54.749Z,70.99
2019-02-27T21:55:23.812Z,71.14
2019-02-27T21:57:52.192Z,71.26
2019-02-27T22:00:25.821Z,71.41
2019-02-27T22:02:55.732Z,71.57
2019-02-27T22:05:24.219Z,71.65
2019-02-27T22:07:52.846Z,71.79
2019-02-27T22:10:21.170Z,71.91
2019-02-27T22:12:49.544Z,71.97
2019-02-27T22:15:23.289Z,72.06
2019-02-27T22:17:51.560Z,72.17
2019-02-27T22:20:19.949Z,72.30
2019-02-27T22:22:48.312Z,72.45
2019-02-27T22:25:16.613Z,72.43
2019-02-27T22:27:45.915Z,72.38
2019-02-27T22:30:17.414Z,72.29
2019-02-27T22:32:48.191Z,72.36
2019-02-27T22:35:15.827Z,72.37
2019-02-27T22:37:44.409Z,72.29
2019-02-27T22:40:17.770Z,72.21
2019-02-27T22:42:48.433Z,72.25
2019-02-27T22:45:22.631Z,72.28
2019-02-27T22:47:53.848Z,72.39
2019-02-27T22:50:22.007Z,72.52
2019-02-27T22:52:54.066Z,72.37
2019-02-27T22:55:20.502Z,72.40
2019-02-27T22:57:48.819Z,72.41
2019-02-27T23:00:56.241Z,72.45
2019-02-27T23:03:28.260Z,72.62
2019-02-27T23:05:56.591Z,72.74
2019-02-27T23:08:25.305Z,72.84
2019-02-27T23:10:53.672Z,72.83
2019-02-27T23:13:21.997Z,72.86
2019-02-27T23:15:50.306Z,72.77
2019-02-27T23:18:19.031Z,72.65
2019-02-27T23:20:47.372Z,72.60
2019-02-27T23:23:15.691Z,72.62
2019-02-27T23:25:46.515Z,72.71
2019-02-27T23:28:14.304Z,72.78
2019-02-27T23:30:42.623Z,72.85
2019-02-27T23:33:10.946Z,72.86
2019-02-27T23:35:39.621Z,72.86
2019-02-27T23:38:07.969Z,72.94
2019-02-27T23:40:36.690Z,73.04
2019-02-27T23:43:05.064Z,73.22
2019-02-27T23:45:33.754Z,73.37
2019-02-27T23:48:02.973Z,73.45
2019-02-27T23:50:31.365Z,73.54
2019-02-27T23:52:59.669Z,73.74
2019-02-27T23:55:27.991Z,73.80
2019-02-27T23:57:57.946Z,73.88
